Terminal Aerodrome Forecast
Issued by NWS

Home | Current Version | Previous Version | Graphics & Text | Print | Product List | Glossary On
Versions: 1 2 3 4 5 6 7 8 9 10 11 12 13 14 15 16 17
000
FTUS43 KICT 291843 AAA
TAFHUT
TAF AMD
KHUT 291843Z 2919/3018 01011KT P6SM SCT015 BKN025
      TEMPO 2919/2920 BKN015
     FM292000 36010KT P6SM SCT025 BKN035
     FM300200 VRB05KT P6SM BKN035
     FM300900 01006KT 4SM BR BKN015
     FM301600 02010KT P6SM SCT015 BKN030=

USA.gov is the U.S. government's official web portal to all federal, state and local government web resources and services.